General Aviation Weather

Text Reports

Enter one or more of the following location identifiers separated by a space:

Zip Code, Four-Character ICAO or Three-Character IATA airport codes.

METAR - Aviation Routine Weather Report
KUUU - Newport, Rhode Island
Updated at 3:53 PM GMT on August 22, 2014 (11:53 AM EDT):
METAR KUUU 221553Z AUTO 05004KT 10SM BKN023 BKN031 BKN065 22/17 A3007 RMK AO2 SLP181 T02220167
TAF - Terminal Area Forecast
KUUU - Newport, Rhode Island
Updated at 3:53 PM GMT on August 22, 2014 (11:53 AM EDT):
No TAF is currently available for this location.
Decoded:
No decoded TAF is available.
PIREP - Pilot Weather Report
KUUU - Newport, Rhode Island
Updated at 3:53 PM GMT on August 22, 2014 (11:53 AM EDT):
No PIREP is currently available for this location.
AIRMET - Airmens Meteorological Information
KUUU - Newport, Rhode Island
Updated at 3:53 PM GMT on August 22, 2014 (11:53 AM EDT):
No AIRMET is currently available for this location.
SIGMET - Significant Meteorological Information
KUUU - Newport, Rhode Island
Updated at 3:53 PM GMT on August 22, 2014 (11:53 AM EDT):
No SIGMET is currently available for this location.
NOTAM - Notice to Airmen
KUUU - Newport, Rhode Island
Updated at 3:53 PM GMT on August 22, 2014 (11:53 AM EDT):
No NOTAM is currently available for this location.
Forecast Area
KUUU - Newport, Rhode Island
Updated at 3:53 PM GMT on August 22, 2014 (11:53 AM EDT):
No NOTAM is currently available for this location.
Aviation Weather Maps